Covadonga — CQMQ — position and weather

sailwx.info

Track history (hours):
 
Tides and Currents Weather Stations Pressure Air Temp Water Temp Dewpoint Dewpoint Depression Visibility Wind Speed Wind Dir Waves Ship Positions

Covadonga

Last reported at 2018-Feb-17 14:02 UTC. Time now 2018-Feb-18 07:06 UTC.
Position N 53°25' E 014°36'.

Length 119 m; draft 5.1 m.

Type: Ship (hazmat cat A). MMSI: 255803540.

Date/timePositionNaut miles runAvg speedWind from/ knotsBaromVisibWave heightAir tempDewpointWater temp
2018-Feb-17 14:02N 53°25' E 014°36'0 0.0
2018-Feb-17 08:29N 53°25' E 014°36'0 0.0
2018-Feb-17 06:42N 53°25' E 014°36'0 0.2
2018-Feb-17 06:31N 53°25' E 014°36'0 0.1
2018-Feb-17 06:00N 53°25' E 014°36'3 4.9
2018-Feb-17 05:28N 53°27' E 014°36'4 8.2
2018-Feb-17 05:00N 53°31' E 014°38'610.0
2018-Feb-17 04:26N 53°36' E 014°35'511.2
2018-Feb-17 04:00N 53°40' E 014°31'9010.9
2018-Feb-16 19:45N 54°44' E 012°42'414.3
2018-Feb-16 19:30N 54°42' E 012°37'1414.1
2018-Feb-16 18:30N 54°33' E 012°18'714.2
2018-Feb-16 18:00N 54°27' E 012°14'713.5
2018-Feb-16 17:30N 54°25' E 012°02'1014.4
2018-Feb-16 16:49N 54°25' E 011°45'414.0
2018-Feb-16 16:31N 54°27' E 011°39'714.5
2018-Feb-16 16:01N 54°30' E 011°28'714.3
2018-Feb-16 15:30N 54°33' E 011°17'713.6
2018-Feb-16 15:01N 54°35' E 011°05'713.8
2018-Feb-16 14:30N 54°35' E 010°54'714.2
2018-Feb-16 14:00N 54°34' E 010°41'713.8
2018-Feb-16 13:30N 54°32' E 010°30'5 9.1
2018-Feb-16 12:58N 54°30' E 010°22'16 5.9
2018-Feb-16 10:15N 54°21' E 009°59'3 7.9
2018-Feb-16 09:49N 54°21' E 009°54'3 8.3
2018-Feb-16 09:30N 54°22' E 009°49'4 8.2
2018-Feb-16 09:00N 54°20' E 009°43'4 7.3
2018-Feb-16 08:30N 54°17' E 009°39'2 3.4
2018-Feb-16 08:00N 54°16' E 009°37'3 5.7
2018-Feb-16 07:30N 54°13' E 009°35'4 8.0
2018-Feb-16 07:00N 54°11' E 009°30'4 8.2
2018-Feb-16 06:30N 54°09' E 009°23'4 7.5
2018-Feb-16 06:00N 54°06' E 009°20'4 7.6
2018-Feb-16 05:30N 54°02' E 009°18'2 3.6
2018-Feb-16 05:00N 54°01' E 009°18'4 8.4
2018-Feb-16 04:30N 53°57' E 009°14'3 5.5
2018-Feb-16 03:57N 53°55' E 009°11'0 0.0
2018-Feb-16 03:27N 53°55' E 009°11'0 0.0
2018-Feb-16 02:57N 53°55' E 009°11'0 0.0
2018-Feb-16 02:27N 53°55' E 009°11'0 0.0
2018-Feb-16 02:00N 53°55' E 009°11'0 0.0
2018-Feb-16 01:30N 53°55' E 009°11'0 0.0
2018-Feb-16 01:00N 53°55' E 009°11'0 0.1
2018-Feb-16 00:31N 53°55' E 009°11'2 3.2
2018-Feb-16 00:00N 53°54' E 009°09'0 0.0
2018-Feb-15 23:30N 53°54' E 009°09'1 1.2
2018-Feb-15 23:00N 53°53' E 009°08'1 2.1
2018-Feb-15 22:30N 53°53' E 009°06'0 0.1
2018-Feb-15 22:01N 53°53' E 009°06'0 0.0
2018-Feb-15 21:30N 53°53' E 009°06'0 0.9
2018-Feb-15 21:00N 53°53' E 009°05'3 5.8
2018-Feb-15 20:30N 53°52' E 009°01'612.5
2018-Feb-15 20:00N 53°50' E 008°50'510.9
2018-Feb-15 19:30N 53°53' E 008°43'510.7
2018-Feb-15 19:01N 53°57' E 008°37'612.7
2018-Feb-15 18:30N 53°59' E 008°27'713.5
2018-Feb-15 18:00N 53°60' E 008°15'713.3
2018-Feb-15 17:30N 53°59' E 008°04'714.1
2018-Feb-15 17:00N 53°57' E 007°52'12613.5
2018-Feb-15 07:42N 53°13' E 004°34'314.4
2018-Feb-15 07:30N 53°10' E 004°32'714.3
2018-Feb-15 07:00N 53°04' E 004°25'714.4
2018-Feb-15 06:29N 52°58' E 004°19'714.5
2018-Feb-15 06:00N 52°51' E 004°15'714.5
2018-Feb-15 05:30N 52°45' E 004°08'814.5
2018-Feb-15 04:58N 52°40' E 003°59'714.6
2018-Feb-15 04:30N 52°35' E 003°51'714.6
2018-Feb-15 04:00N 52°30' E 003°43'6115.1
2018-Feb-14 23:59N 51°45' E 002°36'815.4
2018-Feb-14 23:28N 51°39' E 002°28'715.2
2018-Feb-14 23:01N 51°33' E 002°21'714.9
2018-Feb-14 22:30N 51°27' E 002°14'714.7
2018-Feb-14 22:00N 51°21' E 002°09'714.6
2018-Feb-14 21:30N 51°14' E 002°04'714.1
2018-Feb-14 21:01N 51°10' E 001°54'713.6
2018-Feb-14 20:30N 51°07' E 001°45'713.4
2018-Feb-14 20:01N 51°02' E 001°38'713.2
2018-Feb-14 19:30N 50°57' E 001°31'713.5
2018-Feb-14 19:00N 50°51' E 001°26'713.5
2018-Feb-14 18:30N 50°44' E 001°23'5312.0
2018-Feb-14 14:02N 50°21' E 000°07'012.0
2018-Feb-14 14:00N 50°21' E 000°07'612.0
2018-Feb-14 13:30N 50°19' W 000°02'612.2
2018-Feb-14 13:00N 50°18' W 000°12'1312.0
2018-Feb-14 11:57N 50°14' W 000°31'2013.1
2018-Feb-14 10:25N 50°09' W 001°01'614.6
2018-Feb-14 10:00N 50°08' W 001°10'815.3
2018-Feb-14 09:31N 50°05' W 001°22'815.8
2018-Feb-14 09:01N 50°03' W 001°33'816.3
2018-Feb-14 08:31N 50°01' W 001°46'816.7
2018-Feb-14 08:00N 49°59' W 001°58'816.4
2018-Feb-14 07:30N 49°57' W 002°11'10815.0
2018-Feb-14 00:19N 49°08' W 004°40'1613.5
2018-Feb-13 23:09N 49°01' W 005°00'313.3
2018-Feb-13 22:57N 48°59' W 005°04'713.1
2018-Feb-13 22:26N 48°54' W 005°11'612.1
2018-Feb-13 21:56N 48°52' W 005°20'1811.8
2018-Feb-13 20:25N 48°41' W 005°41'512.1
2018-Feb-13 20:00N 48°37' W 005°44'611.6
2018-Feb-13 19:27N 48°30' W 005°42'511.2
2018-Feb-13 19:00N 48°26' W 005°40'611.2
2018-Feb-13 18:29N 48°20' W 005°38'610.6
2018-Feb-13 17:53N 48°14' W 005°34'410.3
2018-Feb-13 17:30N 48°11' W 005°31'510.1
2018-Feb-13 16:58N 48°06' W 005°27'510.1
2018-Feb-13 16:26N 48°01' W 005°23'5 9.6
2018-Feb-13 15:53N 47°57' W 005°20'410.0
2018-Feb-13 15:26N 47°53' W 005°17'510.0
2018-Feb-13 14:54N 47°48' W 005°13'410.0
2018-Feb-13 14:30N 47°44' W 005°10'510.0
2018-Feb-13 13:59N 47°40' W 005°07'510.0
2018-Feb-13 13:30N 47°35' W 005°04'11 9.3
2018-Feb-13 12:18N 47°28' W 004°52'23211.4
2018-Feb-12 15:56N 43°45' W 003°17'712.0
2018-Feb-12 15:24N 43°39' W 003°14'411.5
2018-Feb-12 15:00N 43°35' W 003°11'611.8
2018-Feb-12 14:30N 43°30' W 003°08'612.2
2018-Feb-12 14:00N 43°24' W 003°05'5 9.1
2018-Feb-12 13:30N 43°20' W 003°02'3 5.8
2018-Feb-12 13:00N 43°18' W 002°59'1 0.3
2018-Feb-12 10:06N 43°17' W 002°58'0 0.0
2018-Feb-12 09:54N 43°17' W 002°58'0 0.0
2018-Feb-12 09:12N 43°17' W 002°58'0 0.0
2018-Feb-12 08:54N 43°17' W 002°58'0 0.0
2018-Feb-12 05:21N 43°17' W 002°58'0 0.0
2018-Feb-12 04:57N 43°17' W 002°58'0 0.0
2018-Feb-12 03:45N 43°17' W 002°58'0 0.0
2018-Feb-12 02:45N 43°17' W 002°58'0 0.0
2018-Feb-11 15:48N 43°17' W 002°58'0 0.0
2018-Feb-11 13:27N 43°17' W 002°58'0 0.0
2018-Feb-11 12:40N 43°17' W 002°58'0 0.7
2018-Feb-11 12:30N 43°18' W 002°58'2 4.2
2018-Feb-11 12:01N 43°19' W 003°00'4 8.4
2018-Feb-11 11:31N 43°22' W 003°04'4 7.0
2018-Feb-11 11:01N 43°25' W 003°06'2 4.8
2018-Feb-11 10:31N 43°28' W 003°07'3 5.4
2018-Feb-11 10:01N 43°30' W 003°09'4 5.4
2018-Feb-11 09:14N 43°34' W 003°09'1 5.0
2018-Feb-11 09:01N 43°35' W 003°10'3 5.4
2018-Feb-11 08:31N 43°38' W 003°12'3 6.8
2018-Feb-11 08:00N 43°41' W 003°14'3 6.8
2018-Feb-11 07:30N 43°44' W 003°16'1 1.3
2018-Feb-11 07:01N 43°44' W 003°17'1 2.4
2018-Feb-11 06:30N 43°43' W 003°16'1 2.3
2018-Feb-11 06:01N 43°42' W 003°16'1 2.4
2018-Feb-11 05:31N 43°41' W 003°16'1 2.5
2018-Feb-11 05:00N 43°39' W 003°16'1 2.5
2018-Feb-11 04:31N 43°38' W 003°15'1 2.6
2018-Feb-11 04:01N 43°37' W 003°14'2 3.3
2018-Feb-11 03:30N 43°36' W 003°13'2 3.5
2018-Feb-11 03:01N 43°34' W 003°12'2 4.0
2018-Feb-11 02:31N 43°32' W 003°11'2 4.0
2018-Feb-11 02:01N 43°30' W 003°10'5 9.0
2018-Feb-11 01:31N 43°30' W 003°17'713.4
2018-Feb-11 01:01N 43°34' W 003°24'713.1
2018-Feb-11 00:30N 43°38' W 003°32'712.8
2018-Feb-10 23:58N 43°39' W 003°41'613.1
2018-Feb-10 23:29N 43°40' W 003°50'5613.4
2018-Feb-10 19:20N 43°44' W 005°06'613.5
2018-Feb-10 18:52N 43°44' W 005°15'513.4
2018-Feb-10 18:30N 43°45' W 005°22'713.4
2018-Feb-10 18:00N 43°45' W 005°31'713.4
2018-Feb-10 17:30N 43°45' W 005°40'713.3
2018-Feb-10 16:59N 43°46' W 005°50'611.7
2018-Feb-10 16:29N 43°42' W 005°55'4 7.5
2018-Feb-10 16:00N 43°38' W 005°57'  
2018-Feb-08 01:05N 39°19' W 009°56'1 9.4
2018-Feb-08 01:00N 39°19' W 009°56'5 9.2
2018-Feb-08 00:30N 39°14' W 009°56'5 9.4
2018-Feb-08 00:00N 39°09' W 009°56'5 9.3
2018-Feb-07 23:30N 39°05' W 009°56'5 9.2
2018-Feb-07 23:00N 39°00' W 009°56'5 9.0
2018-Feb-07 22:30N 38°56' W 009°57'4 8.7
2018-Feb-07 22:00N 38°51' W 009°56'4 8.9
2018-Feb-07 21:30N 38°47' W 009°56'  
Track history (hours):
 
Tides and Currents Weather Stations Pressure Air Temp Water Temp Dewpoint Dewpoint Depression Visibility Wind Speed Wind Dir Waves Ship Positions

Covadonga

Last reported at 2018-Feb-17 14:02 UTC. Time now 2018-Feb-18 07:06 UTC.
Position N 53°25' E 014°36'.

Length 119 m; draft 5.1 m.

Type: Ship (hazmat cat A). MMSI: 255803540.

Date/timePositionNaut miles runAvg speedWind from/ knotsBaromVisibWave heightAir tempDewpointWater temp
2018-Feb-17 14:02N 53°25' E 014°36'0 0.0
2018-Feb-17 08:29N 53°25' E 014°36'0 0.0
2018-Feb-17 06:42N 53°25' E 014°36'0 0.2
2018-Feb-17 06:31N 53°25' E 014°36'0 0.1
2018-Feb-17 06:00N 53°25' E 014°36'3 4.9
2018-Feb-17 05:28N 53°27' E 014°36'4 8.2
2018-Feb-17 05:00N 53°31' E 014°38'610.0
2018-Feb-17 04:26N 53°36' E 014°35'511.2
2018-Feb-17 04:00N 53°40' E 014°31'9010.9
2018-Feb-16 19:45N 54°44' E 012°42'414.3
2018-Feb-16 19:30N 54°42' E 012°37'1414.1
2018-Feb-16 18:30N 54°33' E 012°18'714.2
2018-Feb-16 18:00N 54°27' E 012°14'713.5
2018-Feb-16 17:30N 54°25' E 012°02'1014.4
2018-Feb-16 16:49N 54°25' E 011°45'414.0
2018-Feb-16 16:31N 54°27' E 011°39'714.5
2018-Feb-16 16:01N 54°30' E 011°28'714.3
2018-Feb-16 15:30N 54°33' E 011°17'713.6
2018-Feb-16 15:01N 54°35' E 011°05'713.8
2018-Feb-16 14:30N 54°35' E 010°54'714.2
2018-Feb-16 14:00N 54°34' E 010°41'713.8
2018-Feb-16 13:30N 54°32' E 010°30'5 9.1
2018-Feb-16 12:58N 54°30' E 010°22'16 5.9
2018-Feb-16 10:15N 54°21' E 009°59'3 7.9
2018-Feb-16 09:49N 54°21' E 009°54'3 8.3
2018-Feb-16 09:30N 54°22' E 009°49'4 8.2
2018-Feb-16 09:00N 54°20' E 009°43'4 7.3
2018-Feb-16 08:30N 54°17' E 009°39'2 3.4
2018-Feb-16 08:00N 54°16' E 009°37'3 5.7
2018-Feb-16 07:30N 54°13' E 009°35'4 8.0
2018-Feb-16 07:00N 54°11' E 009°30'4 8.2
2018-Feb-16 06:30N 54°09' E 009°23'4 7.5
2018-Feb-16 06:00N 54°06' E 009°20'4 7.6
2018-Feb-16 05:30N 54°02' E 009°18'2 3.6
2018-Feb-16 05:00N 54°01' E 009°18'4 8.4
2018-Feb-16 04:30N 53°57' E 009°14'3 5.5
2018-Feb-16 03:57N 53°55' E 009°11'0 0.0
2018-Feb-16 03:27N 53°55' E 009°11'0 0.0
2018-Feb-16 02:57N 53°55' E 009°11'0 0.0
2018-Feb-16 02:27N 53°55' E 009°11'0 0.0
2018-Feb-16 02:00N 53°55' E 009°11'0 0.0
2018-Feb-16 01:30N 53°55' E 009°11'0 0.0
2018-Feb-16 01:00N 53°55' E 009°11'0 0.1
2018-Feb-16 00:31N 53°55' E 009°11'2 3.2
2018-Feb-16 00:00N 53°54' E 009°09'0 0.0
2018-Feb-15 23:30N 53°54' E 009°09'1 1.2
2018-Feb-15 23:00N 53°53' E 009°08'1 2.1
2018-Feb-15 22:30N 53°53' E 009°06'0 0.1
2018-Feb-15 22:01N 53°53' E 009°06'0 0.0
2018-Feb-15 21:30N 53°53' E 009°06'0 0.9
2018-Feb-15 21:00N 53°53' E 009°05'3 5.8
2018-Feb-15 20:30N 53°52' E 009°01'612.5
2018-Feb-15 20:00N 53°50' E 008°50'510.9
2018-Feb-15 19:30N 53°53' E 008°43'510.7
2018-Feb-15 19:01N 53°57' E 008°37'612.7
2018-Feb-15 18:30N 53°59' E 008°27'713.5
2018-Feb-15 18:00N 53°60' E 008°15'713.3
2018-Feb-15 17:30N 53°59' E 008°04'714.1
2018-Feb-15 17:00N 53°57' E 007°52'12613.5
2018-Feb-15 07:42N 53°13' E 004°34'314.4
2018-Feb-15 07:30N 53°10' E 004°32'714.3
2018-Feb-15 07:00N 53°04' E 004°25'714.4
2018-Feb-15 06:29N 52°58' E 004°19'714.5
2018-Feb-15 06:00N 52°51' E 004°15'714.5
2018-Feb-15 05:30N 52°45' E 004°08'814.5
2018-Feb-15 04:58N 52°40' E 003°59'714.6
2018-Feb-15 04:30N 52°35' E 003°51'714.6
2018-Feb-15 04:00N 52°30' E 003°43'6115.1
2018-Feb-14 23:59N 51°45' E 002°36'815.4
2018-Feb-14 23:28N 51°39' E 002°28'715.2
2018-Feb-14 23:01N 51°33' E 002°21'714.9
2018-Feb-14 22:30N 51°27' E 002°14'714.7
2018-Feb-14 22:00N 51°21' E 002°09'714.6
2018-Feb-14 21:30N 51°14' E 002°04'714.1
2018-Feb-14 21:01N 51°10' E 001°54'713.6
2018-Feb-14 20:30N 51°07' E 001°45'713.4
2018-Feb-14 20:01N 51°02' E 001°38'713.2
2018-Feb-14 19:30N 50°57' E 001°31'713.5
2018-Feb-14 19:00N 50°51' E 001°26'713.5
2018-Feb-14 18:30N 50°44' E 001°23'5312.0
2018-Feb-14 14:02N 50°21' E 000°07'012.0
2018-Feb-14 14:00N 50°21' E 000°07'612.0
2018-Feb-14 13:30N 50°19' W 000°02'612.2
2018-Feb-14 13:00N 50°18' W 000°12'1312.0
2018-Feb-14 11:57N 50°14' W 000°31'2013.1
2018-Feb-14 10:25N 50°09' W 001°01'614.6
2018-Feb-14 10:00N 50°08' W 001°10'815.3
2018-Feb-14 09:31N 50°05' W 001°22'815.8
2018-Feb-14 09:01N 50°03' W 001°33'816.3
2018-Feb-14 08:31N 50°01' W 001°46'816.7
2018-Feb-14 08:00N 49°59' W 001°58'816.4
2018-Feb-14 07:30N 49°57' W 002°11'10815.0
2018-Feb-14 00:19N 49°08' W 004°40'1613.5
2018-Feb-13 23:09N 49°01' W 005°00'313.3
2018-Feb-13 22:57N 48°59' W 005°04'713.1
2018-Feb-13 22:26N 48°54' W 005°11'612.1
2018-Feb-13 21:56N 48°52' W 005°20'1811.8
2018-Feb-13 20:25N 48°41' W 005°41'512.1
2018-Feb-13 20:00N 48°37' W 005°44'611.6
2018-Feb-13 19:27N 48°30' W 005°42'511.2
2018-Feb-13 19:00N 48°26' W 005°40'611.2
2018-Feb-13 18:29N 48°20' W 005°38'610.6
2018-Feb-13 17:53N 48°14' W 005°34'410.3
2018-Feb-13 17:30N 48°11' W 005°31'510.1
2018-Feb-13 16:58N 48°06' W 005°27'510.1
2018-Feb-13 16:26N 48°01' W 005°23'5 9.6
2018-Feb-13 15:53N 47°57' W 005°20'410.0
2018-Feb-13 15:26N 47°53' W 005°17'510.0
2018-Feb-13 14:54N 47°48' W 005°13'410.0
2018-Feb-13 14:30N 47°44' W 005°10'510.0
2018-Feb-13 13:59N 47°40' W 005°07'510.0
2018-Feb-13 13:30N 47°35' W 005°04'11 9.3
2018-Feb-13 12:18N 47°28' W 004°52'23211.4
2018-Feb-12 15:56N 43°45' W 003°17'712.0
2018-Feb-12 15:24N 43°39' W 003°14'411.5
2018-Feb-12 15:00N 43°35' W 003°11'611.8
2018-Feb-12 14:30N 43°30' W 003°08'612.2
2018-Feb-12 14:00N 43°24' W 003°05'5 9.1
2018-Feb-12 13:30N 43°20' W 003°02'3 5.8
2018-Feb-12 13:00N 43°18' W 002°59'1 0.3
2018-Feb-12 10:06N 43°17' W 002°58'0 0.0
2018-Feb-12 09:54N 43°17' W 002°58'0 0.0
2018-Feb-12 09:12N 43°17' W 002°58'0 0.0
2018-Feb-12 08:54N 43°17' W 002°58'0 0.0
2018-Feb-12 05:21N 43°17' W 002°58'0 0.0
2018-Feb-12 04:57N 43°17' W 002°58'0 0.0
2018-Feb-12 03:45N 43°17' W 002°58'0 0.0
2018-Feb-12 02:45N 43°17' W 002°58'0 0.0
2018-Feb-11 15:48N 43°17' W 002°58'0 0.0
2018-Feb-11 13:27N 43°17' W 002°58'0 0.0
2018-Feb-11 12:40N 43°17' W 002°58'0 0.7
2018-Feb-11 12:30N 43°18' W 002°58'2 4.2
2018-Feb-11 12:01N 43°19' W 003°00'4 8.4
2018-Feb-11 11:31N 43°22' W 003°04'4 7.0
2018-Feb-11 11:01N 43°25' W 003°06'2 4.8
2018-Feb-11 10:31N 43°28' W 003°07'3 5.4
2018-Feb-11 10:01N 43°30' W 003°09'4 5.4
2018-Feb-11 09:14N 43°34' W 003°09'1 5.0
2018-Feb-11 09:01N 43°35' W 003°10'3 5.4
2018-Feb-11 08:31N 43°38' W 003°12'3 6.8
2018-Feb-11 08:00N 43°41' W 003°14'3 6.8
2018-Feb-11 07:30N 43°44' W 003°16'1 1.3
2018-Feb-11 07:01N 43°44' W 003°17'1 2.4
2018-Feb-11 06:30N 43°43' W 003°16'1 2.3
2018-Feb-11 06:01N 43°42' W 003°16'1 2.4
2018-Feb-11 05:31N 43°41' W 003°16'1 2.5
2018-Feb-11 05:00N 43°39' W 003°16'1 2.5
2018-Feb-11 04:31N 43°38' W 003°15'1 2.6
2018-Feb-11 04:01N 43°37' W 003°14'2 3.3
2018-Feb-11 03:30N 43°36' W 003°13'2 3.5
2018-Feb-11 03:01N 43°34' W 003°12'2 4.0
2018-Feb-11 02:31N 43°32' W 003°11'2 4.0
2018-Feb-11 02:01N 43°30' W 003°10'5 9.0
2018-Feb-11 01:31N 43°30' W 003°17'713.4
2018-Feb-11 01:01N 43°34' W 003°24'713.1
2018-Feb-11 00:30N 43°38' W 003°32'712.8
2018-Feb-10 23:58N 43°39' W 003°41'613.1
2018-Feb-10 23:29N 43°40' W 003°50'5613.4
2018-Feb-10 19:20N 43°44' W 005°06'613.5
2018-Feb-10 18:52N 43°44' W 005°15'513.4
2018-Feb-10 18:30N 43°45' W 005°22'713.4
2018-Feb-10 18:00N 43°45' W 005°31'713.4
2018-Feb-10 17:30N 43°45' W 005°40'713.3
2018-Feb-10 16:59N 43°46' W 005°50'611.7
2018-Feb-10 16:29N 43°42' W 005°55'4 7.5
2018-Feb-10 16:00N 43°38' W 005°57'  
2018-Feb-08 01:05N 39°19' W 009°56'1 9.4
2018-Feb-08 01:00N 39°19' W 009°56'5 9.2
2018-Feb-08 00:30N 39°14' W 009°56'5 9.4
2018-Feb-08 00:00N 39°09' W 009°56'5 9.3
2018-Feb-07 23:30N 39°05' W 009°56'5 9.2
2018-Feb-07 23:00N 39°00' W 009°56'5 9.0
2018-Feb-07 22:30N 38°56' W 009°57'4 8.7
2018-Feb-07 22:00N 38°51' W 009°56'4 8.9
2018-Feb-07 21:30N 38°47' W 009°56'  

Dump ship's entire track history